Time;durP1;ratioP1;P1;durP2;ratioP2;P2;SDS_P1;SDS_P2;PMS_P1;PMS_P2;Temp;Humidity;BMP_temperature;BMP_pressure;BME280_temperature;BME280_humidity;BME280_pressure;Samples;Min_cycle;Max_cycle;Signal;HPM_P1;HPM_P2
2022/09/20 00:01:26;;;;;;;0.30;0.30;;;23.90;48.40;;;;;;5008618;28;20109;-63
2022/09/20 00:03:56;;;;;;;0.30;0.20;;;23.90;48.40;;;;;;5008451;28;20074;-63
2022/09/20 00:06:27;;;;;;;0.30;0.28;;;23.90;48.40;;;;;;5007733;28;20449;-63
2022/09/20 00:08:55;;;;;;;0.98;0.30;;;23.90;48.40;;;;;;5003898;28;20213;-63
2022/09/20 00:11:28;;;;;;;1.30;0.35;;;23.90;48.40;;;;;;5007740;28;20410;-63
2022/09/20 00:13:58;;;;;;;2.65;0.50;;;23.90;48.40;;;;;;5008640;28;20049;-63
2022/09/20 00:16:31;;;;;;;0.32;0.30;;;23.90;48.40;;;;;;4990375;28;20521;-63
2022/09/20 00:19:02;;;;;;;0.98;0.45;;;23.90;48.40;;;;;;4990650;28;20541;-63
2022/09/20 00:21:31;;;;;;;0.50;0.40;;;23.90;48.40;;;;;;5008090;28;20497;-63
2022/09/20 00:23:58;;;;;;;0.52;0.50;;;23.90;48.40;;;;;;5007797;28;20057;-63
2022/09/20 00:26:27;;;;;;;0.98;0.20;;;23.80;48.40;;;;;;5008001;28;20069;-63
2022/09/20 00:28:54;;;;;;;0.40;0.22;;;23.90;48.40;;;;;;5006082;28;20050;-63
2022/09/20 00:31:21;;;;;;;0.57;0.50;;;23.80;48.40;;;;;;4990730;28;20041;-63
2022/09/20 00:36:35;;;;;;;0.98;0.22;;;23.80;48.40;;;;;;4992941;28;20050;-63
2022/09/20 00:39:03;;;;;;;0.80;0.30;;;23.80;48.50;;;;;;4978729;28;20218;-63
2022/09/20 00:41:31;;;;;;;0.22;0.22;;;23.80;48.50;;;;;;4989168;28;20510;-61
2022/09/20 00:43:59;;;;;;;0.40;0.32;;;23.80;48.50;;;;;;5011510;28;20041;-61
2022/09/20 00:46:43;;;;;;;1.58;0.80;;;23.80;48.50;;;;;;5010565;28;20069;-61
2022/09/20 00:49:20;;;;;;;0.70;0.38;;;23.80;48.50;;;;;;5011444;28;20048;-61
2022/09/20 00:51:54;;;;;;;0.63;0.30;;;23.80;48.60;;;;;;5011153;28;20509;-63
2022/09/20 00:54:22;;;;;;;0.20;0.17;;;23.80;48.60;;;;;;5030513;28;20045;-63
2022/09/20 00:56:50;;;;;;;0.40;0.40;;;23.80;48.60;;;;;;5030937;28;20049;-63
2022/09/20 00:59:35;;;;;;;0.28;0.28;;;23.70;48.60;;;;;;5030765;28;20061;-63
2022/09/20 01:02:14;;;;;;;0.45;0.20;;;23.80;48.60;;;;;;5030726;28;20068;-63
2022/09/20 01:04:43;;;;;;;0.20;0.10;;;23.80;48.70;;;;;;5030816;28;20406;-63
2022/09/20 01:07:15;;;;;;;0.50;0.30;;;23.70;48.60;;;;;;5030173;28;20045;-63
2022/09/20 01:09:42;;;;;;;0.65;0.38;;;23.80;48.70;;;;;;5030915;28;20060;-63
2022/09/20 01:12:13;;;;;;;0.25;0.25;;;23.80;48.70;;;;;;5012501;28;20049;-63
2022/09/20 01:14:42;;;;;;;0.30;0.30;;;23.80;48.60;;;;;;5026030;28;20064;-63
2022/09/20 01:17:11;;;;;;;0.30;0.30;;;23.80;48.60;;;;;;5030277;28;20049;-63
2022/09/20 01:20:11;;;;;;;1.75;0.30;;;23.80;48.60;;;;;;5030359;28;20055;-61
2022/09/20 01:23:13;;;;;;;0.82;0.15;;;23.80;48.50;;;;;;5020014;28;20050;-63
2022/09/20 01:26:13;;;;;;;0.40;0.40;;;23.80;48.50;;;;;;5010456;28;20486;-60
2022/09/20 01:28:44;;;;;;;0.60;0.52;;;23.80;48.50;;;;;;5010762;28;20105;-63
2022/09/20 01:31:22;;;;;;;0.30;0.30;;;23.80;48.50;;;;;;5010109;28;20049;-63
2022/09/20 01:33:56;;;;;;;0.20;0.20;;;23.80;48.40;;;;;;5010997;28;20434;-63
2022/09/20 01:36:30;;;;;;;0.50;0.38;;;23.80;48.40;;;;;;5009646;28;20549;-63
2022/09/20 01:39:15;;;;;;;0.32;0.32;;;23.80;48.50;;;;;;5010954;28;20049;-63
2022/09/20 01:42:04;;;;;;;0.20;0.20;;;23.80;48.40;;;;;;5009905;28;20058;-63
2022/09/20 01:44:57;;;;;;;0.95;0.52;;;23.80;48.40;;;;;;4989881;28;20093;-63
2022/09/20 01:47:55;;;;;;;0.10;0.10;;;23.80;48.40;;;;;;4990548;28;20058;-63
2022/09/20 01:50:33;;;;;;;0.30;0.25;;;23.80;48.40;;;;;;4990824;28;20038;-63
2022/09/20 01:53:28;;;;;;;1.45;0.30;;;23.80;48.40;;;;;;4990336;28;20171;-63
2022/09/20 01:56:31;;;;;;;0.20;0.20;;;23.80;48.40;;;;;;4990249;28;20057;-61
2022/09/20 01:59:32;;;;;;;0.20;0.20;;;23.80;48.40;;;;;;4975803;28;20549;-60
2022/09/20 02:02:39;;;;;;;0.10;0.10;;;23.80;48.50;;;;;;4990273;28;20058;-60
2022/09/20 02:05:39;;;;;;;0.50;0.35;;;23.80;48.50;;;;;;4990187;28;20392;-61
2022/09/20 02:08:27;;;;;;;2.45;0.30;;;23.80;48.50;;;;;;4990142;28;20046;-61
2022/09/20 02:11:13;;;;;;;0.30;0.30;;;23.70;48.40;;;;;;4975445;28;20061;-61
2022/09/20 02:14:07;;;;;;;0.47;0.28;;;23.70;48.50;;;;;;4990111;28;20046;-61
2022/09/20 02:16:54;;;;;;;0.20;0.20;;;23.70;48.50;;;;;;4988438;28;20487;-62
2022/09/20 02:19:32;;;;;;;0.28;0.20;;;23.70;48.50;;;;;;4990385;28;20042;-63
2022/09/20 02:22:10;;;;;;;0.20;0.20;;;23.70;48.50;;;;;;4990626;28;20053;-62
2022/09/20 02:25:05;;;;;;;0.50;0.20;;;23.70;48.50;;;;;;4989430;28;20058;-63
2022/09/20 02:28:04;;;;;;;0.13;0.10;;;23.70;48.50;;;;;;4989609;28;20062;-63
2022/09/20 02:30:50;;;;;;;0.65;0.30;;;23.70;48.60;;;;;;4989090;28;20050;-63
2022/09/20 02:33:50;;;;;;;0.43;0.30;;;23.70;48.60;;;;;;4990805;28;20046;-63
2022/09/20 02:36:40;;;;;;;0.50;0.30;;;23.70;48.60;;;;;;4989417;28;20042;-63
2022/09/20 02:39:16;;;;;;;0.25;0.20;;;23.70;48.60;;;;;;4989968;28;20284;-63
2022/09/20 02:42:23;;;;;;;0.20;0.20;;;23.70;48.70;;;;;;4989811;28;20057;-63
2022/09/20 02:45:13;;;;;;;1.20;0.40;;;23.70;48.70;;;;;;4989833;28;20042;-63
2022/09/20 02:47:42;;;;;;;0.10;0.10;;;23.70;48.70;;;;;;4988831;28;20046;-63
2022/09/20 02:50:28;;;;;;;0.47;0.47;;;23.70;48.70;;;;;;4985286;28;20181;-63
2022/09/20 02:53:35;;;;;;;0.30;0.30;;;23.70;48.70;;;;;;4989535;28;20050;-63
2022/09/20 02:56:36;;;;;;;0.20;0.20;;;23.70;48.70;;;;;;4978003;28;20299;-63
2022/09/20 02:59:30;;;;;;;0.10;0.10;;;23.70;48.70;;;;;;4989457;28;20506;-63
2022/09/20 03:02:18;;;;;;;0.20;0.20;;;23.70;48.70;;;;;;4989472;28;20054;-63
2022/09/20 03:05:22;;;;;;;1.55;0.20;;;23.70;48.60;;;;;;4989670;28;20054;-63
2022/09/20 03:08:23;;;;;;;0.40;0.40;;;23.70;48.60;;;;;;4960574;28;20050;-63
2022/09/20 03:11:02;;;;;;;1.23;0.57;;;23.70;48.60;;;;;;4989505;28;20046;-63
2022/09/20 03:14:09;;;;;;;2.65;0.20;;;23.70;48.60;;;;;;4988724;28;20458;-63
2022/09/20 03:17:16;;;;;;;0.47;0.22;;;23.70;48.50;;;;;;4972102;28;20351;-63
2022/09/20 03:20:16;;;;;;;0.60;0.30;;;23.70;48.50;;;;;;4977335;28;20061;-63
2022/09/20 03:23:18;;;;;;;0.45;0.30;;;23.70;48.50;;;;;;4956312;28;20117;-63
2022/09/20 03:26:01;;;;;;;0.32;0.10;;;23.70;48.50;;;;;;4988454;28;20050;-63
2022/09/20 03:28:52;;;;;;;0.30;0.20;;;23.70;48.50;;;;;;4997704;28;20051;-63
2022/09/20 03:31:43;;;;;;;0.13;0.13;;;23.70;48.50;;;;;;4989116;28;20057;-63
2022/09/20 03:34:48;;;;;;;0.25;0.25;;;23.70;48.50;;;;;;4989098;28;20046;-63
2022/09/20 03:37:40;;;;;;;0.30;0.20;;;23.70;48.50;;;;;;4991798;28;20038;-63
2022/09/20 03:40:43;;;;;;;0.38;0.13;;;23.70;48.60;;;;;;4989316;28;20056;-63
2022/09/20 03:43:44;;;;;;;0.85;0.17;;;23.70;48.50;;;;;;4988307;28;20069;-63
2022/09/20 03:46:26;;;;;;;0.50;0.30;;;23.70;48.60;;;;;;4988985;28;20043;-63
2022/09/20 03:49:33;;;;;;;0.30;0.30;;;23.70;48.60;;;;;;4988217;28;20050;-63
2022/09/20 03:52:40;;;;;;;0.45;0.20;;;23.60;48.50;;;;;;4990967;28;20418;-63
2022/09/20 03:55:30;;;;;;;0.20;0.20;;;23.60;48.50;;;;;;5002787;28;20048;-63
2022/09/20 03:58:05;;;;;;;;;;;23.60;48.50;;;;;;5007850;28;20057;-63
2022/09/20 04:01:00;;;;;;;0.20;0.20;;;23.60;48.50;;;;;;5005186;28;19921;-63
2022/09/20 04:03:52;;;;;;;0.20;0.20;;;23.60;48.60;;;;;;4992998;28;20258;-65
2022/09/20 04:06:58;;;;;;;0.30;0.20;;;23.60;48.60;;;;;;5006876;28;20065;-63
2022/09/20 04:09:48;;;;;;;0.20;0.20;;;23.60;48.60;;;;;;5007627;28;20045;-63
2022/09/20 04:12:44;;;;;;;0.40;0.40;;;23.60;48.60;;;;;;5006551;28;20050;-63
2022/09/20 04:15:39;;;;;;;0.95;0.15;;;23.60;48.70;;;;;;5022054;28;20041;-63
2022/09/20 04:18:36;;;;;;;2.63;0.10;;;23.60;49.00;;;;;;5006925;28;20053;-64
2022/09/20 04:21:22;;;;;;;3.22;0.32;;;23.60;49.30;;;;;;5015605;28;20046;-63
2022/09/20 04:24:08;;;;;;;0.35;0.13;;;23.60;49.50;;;;;;5026489;28;20073;-62
2022/09/20 04:26:40;;;;;;;0.20;0.20;;;23.60;49.50;;;;;;4994258;28;20049;-63
2022/09/20 04:29:28;;;;;;;0.57;0.40;;;23.70;49.50;;;;;;4995260;28;20053;-63
2022/09/20 04:32:16;;;;;;;0.15;0.15;;;23.70;49.40;;;;;;5011964;28;20061;-63
2022/09/20 04:37:53;;;;;;;0.25;0.25;;;23.70;49.20;;;;;;5023180;28;20049;-63
2022/09/20 04:40:58;;;;;;;1.73;0.30;;;23.70;49.00;;;;;;5014601;28;20046;-63
2022/09/20 04:44:06;;;;;;;2.40;0.30;;;23.70;48.90;;;;;;5015192;28;20038;-63
2022/09/20 04:47:14;;;;;;;0.32;0.20;;;23.70;48.80;;;;;;5022929;28;20046;-62
2022/09/20 04:50:21;;;;;;;0.35;0.30;;;23.70;48.70;;;;;;4999467;28;20415;-61
2022/09/20 04:53:19;;;;;;;0.43;0.30;;;23.80;48.70;;;;;;5014403;28;20056;-63
2022/09/20 04:56:02;;;;;;;2.33;0.40;;;23.80;48.70;;;;;;5010899;28;20501;-63
2022/09/20 04:59:04;;;;;;;1.50;0.38;;;23.80;48.40;;;;;;5014165;28;20046;-62
2022/09/20 05:02:08;;;;;;;0.95;0.40;;;23.80;48.50;;;;;;4992877;28;20085;-62
2022/09/20 05:05:15;;;;;;;1.45;0.30;;;23.80;48.40;;;;;;5018455;28;20076;-62
2022/09/20 05:08:13;;;;;;;0.90;0.30;;;23.90;48.20;;;;;;5008256;28;20397;-62
2022/09/20 05:11:11;;;;;;;0.88;0.50;;;23.90;48.20;;;;;;5010215;28;20045;-64
2022/09/20 05:14:23;;;;;;;4.55;0.60;;;23.90;48.10;;;;;;5018265;28;20041;-62
2022/09/20 05:17:30;;;;;;;1.35;0.55;;;23.90;48.00;;;;;;5000092;28;20076;-62
2022/09/20 05:20:33;;;;;;;2.75;0.30;;;23.90;47.90;;;;;;5023930;28;20357;-62
2022/09/20 05:23:26;;;;;;;2.28;0.52;;;23.90;48.00;;;;;;5014897;28;20274;-62
2022/09/20 05:26:33;;;;;;;1.92;0.43;;;23.90;48.00;;;;;;5000991;28;20061;-62
2022/09/20 05:29:41;;;;;;;0.30;0.30;;;24.00;48.00;;;;;;4995480;28;20747;-63
2022/09/20 05:32:28;;;;;;;1.75;0.75;;;24.00;47.90;;;;;;4985091;28;20054;-60
2022/09/20 05:35:18;;;;;;;3.65;0.75;;;24.10;47.90;;;;;;5007605;28;20053;-62
2022/09/20 05:38:10;;;;;;;0.77;0.40;;;24.10;47.80;;;;;;5003352;28;20105;-62
2022/09/20 05:41:17;;;;;;;0.85;0.50;;;24.10;47.90;;;;;;5002207;28;20073;-61
2022/09/20 05:44:21;;;;;;;1.80;0.60;;;24.10;48.00;;;;;;5003285;28;20528;-60
2022/09/20 05:57:15;;;;;;;5.38;1.02;;;24.20;47.30;;;;;;4952236;28;20051;-62
2022/09/20 06:00:01;;;;;;;1.70;0.80;;;24.30;47.30;;;;;;4941709;28;20924;-59
2022/09/20 06:03:00;;;;;;;8.82;1.85;;;24.30;47.30;;;;;;4929362;28;20051;-61
2022/09/20 06:05:59;;;;;;;6.93;2.40;;;24.30;47.20;;;;;;4957115;28;20039;-61
2022/09/20 06:08:52;;;;;;;7.95;2.08;;;24.30;46.70;;;;;;4959096;28;20070;-61
2022/09/20 06:11:58;;;;;;;8.35;1.80;;;24.30;46.30;;;;;;4955835;28;20057;-60
2022/09/20 06:14:50;;;;;;;3.63;1.70;;;24.40;46.00;;;;;;4957507;28;20218;-61
2022/09/20 06:17:35;;;;;;;5.07;1.75;;;24.40;45.90;;;;;;4960880;28;20348;-61
2022/09/20 06:20:24;;;;;;;4.57;1.73;;;24.40;45.80;;;;;;4956640;28;20046;-60
2022/09/20 06:22:57;;;;;;;3.10;1.38;;;24.40;45.70;;;;;;4998853;28;20045;-60
2022/09/20 06:25:40;;;;;;;4.57;1.50;;;24.50;45.70;;;;;;4978315;28;20042;-62
2022/09/20 06:28:15;;;;;;;4.05;1.42;;;24.40;45.70;;;;;;5001747;28;20061;-61
2022/09/20 06:30:54;;;;;;;3.00;1.40;;;24.50;45.60;;;;;;4998706;28;20127;-61
2022/09/20 06:33:24;;;;;;;9.40;1.50;;;24.50;45.50;;;;;;4986510;28;20054;-62
2022/09/20 06:42:17;;;;;;;3.25;1.05;;;24.50;45.00;;;;;;4990618;28;20053;-60
2022/09/20 06:44:44;;;;;;;1.17;1.08;;;24.60;45.10;;;;;;5001354;28;20046;-60
2022/09/20 06:47:12;;;;;;;3.60;1.02;;;24.60;45.30;;;;;;4998847;28;20053;-62
2022/09/20 06:49:41;;;;;;;1.98;1.00;;;24.60;45.30;;;;;;5000195;28;20065;-62
2022/09/20 06:52:13;;;;;;;7.15;1.38;;;24.60;45.30;;;;;;5000208;28;20052;-63
2022/09/20 06:54:45;;;;;;;2.53;1.10;;;24.70;45.20;;;;;;4999714;28;20527;-61
2022/09/20 06:57:18;;;;;;;3.42;1.23;;;24.70;45.10;;;;;;4999451;28;20043;-61
2022/09/20 06:59:45;;;;;;;2.35;1.23;;;24.70;45.10;;;;;;4996470;28;20065;-62
2022/09/20 07:02:12;;;;;;;1.08;0.88;;;24.70;45.00;;;;;;4997833;28;20870;-61
2022/09/20 07:04:39;;;;;;;4.72;0.88;;;24.70;44.90;;;;;;4994085;28;20061;-59
2022/09/20 07:07:07;;;;;;;1.42;0.80;;;24.80;44.90;;;;;;4999066;28;20755;-61
2022/09/20 07:09:35;;;;;;;4.13;1.00;;;24.80;44.80;;;;;;4996710;28;20143;-60
2022/09/20 07:12:03;;;;;;;3.15;1.45;;;24.80;44.80;;;;;;4996237;28;20046;-62
2022/09/20 07:14:30;;;;;;;3.03;1.40;;;24.80;44.80;;;;;;5003828;28;20037;-61
2022/09/20 07:16:57;;;;;;;3.90;1.02;;;24.90;44.80;;;;;;5002930;28;20080;-59
2022/09/20 07:19:24;;;;;;;2.00;1.17;;;24.90;44.70;;;;;;5000068;28;20049;-60
2022/09/20 07:21:52;;;;;;;1.33;1.20;;;24.90;44.70;;;;;;5001206;28;20041;-60
2022/09/20 07:24:20;;;;;;;7.80;1.10;;;24.90;44.70;;;;;;5001710;28;20038;-62
2022/09/20 07:26:59;;;;;;;11.25;1.50;;;25.00;44.80;;;;;;5003324;28;20144;-62
2022/09/20 07:29:27;;;;;;;3.45;1.00;;;25.00;44.90;;;;;;5002181;28;20050;-61
2022/09/20 07:31:55;;;;;;;1.25;1.15;;;25.00;44.80;;;;;;4979266;28;20050;-61
2022/09/20 07:34:23;;;;;;;16.13;1.85;;;25.00;44.70;;;;;;4997124;28;20456;-61
2022/09/20 07:36:51;;;;;;;8.98;1.52;;;25.00;44.80;;;;;;4994336;28;20053;-61
2022/09/20 07:39:18;;;;;;;5.43;0.93;;;25.10;44.60;;;;;;4997780;28;20050;-61
2022/09/20 07:41:47;;;;;;;3.80;0.88;;;25.10;44.50;;;;;;4998233;28;20042;-61
2022/09/20 07:44:23;;;;;;;3.70;0.73;;;25.10;44.30;;;;;;4999745;28;20048;-61
2022/09/20 07:46:56;;;;;;;2.53;0.70;;;25.20;44.20;;;;;;5001781;28;20049;-61
2022/09/20 07:49:25;;;;;;;2.45;1.10;;;25.20;43.90;;;;;;4994986;28;20053;-59
2022/09/20 07:51:52;;;;;;;2.50;0.70;;;25.30;43.80;;;;;;4995853;28;20049;-60
2022/09/20 07:54:20;;;;;;;4.15;0.60;;;25.30;43.60;;;;;;4997233;28;20069;-61
2022/09/20 07:56:47;;;;;;;10.57;1.00;;;25.30;43.50;;;;;;4997150;28;20060;-61
2022/09/20 07:59:15;;;;;;;1.52;0.88;;;25.40;43.40;;;;;;5000963;28;20060;-62
2022/09/20 08:01:42;;;;;;;1.75;0.80;;;25.40;43.80;;;;;;5003172;28;20069;-61
2022/09/20 08:04:10;;;;;;;3.17;0.70;;;25.40;43.30;;;;;;4998796;28;20041;-62
2022/09/20 08:06:40;;;;;;;0.45;0.43;;;25.40;43.20;;;;;;4994499;28;20050;-62
2022/09/20 08:09:09;;;;;;;2.65;0.40;;;25.40;42.70;;;;;;4993038;28;20050;-62
2022/09/20 08:11:39;;;;;;;1.30;0.80;;;25.40;42.70;;;;;;4998797;28;20049;-62
2022/09/20 08:14:07;;;;;;;1.45;0.57;;;25.40;42.70;;;;;;4990610;28;20299;-62
2022/09/20 08:16:40;;;;;;;4.22;1.10;;;25.50;42.70;;;;;;4994257;28;20064;-62
2022/09/20 08:19:12;;;;;;;0.75;0.50;;;25.50;42.70;;;;;;4998277;28;20749;-61
2022/09/20 08:21:39;;;;;;;0.70;0.70;;;25.40;43.10;;;;;;4997408;28;20050;-62
2022/09/20 08:24:06;;;;;;;1.13;0.60;;;25.50;42.60;;;;;;5006413;28;20410;-61
2022/09/20 08:26:34;;;;;;;0.73;0.40;;;25.50;42.70;;;;;;5003229;28;20060;-61
2022/09/20 08:29:04;;;;;;;1.55;0.60;;;25.50;42.40;;;;;;4993206;28;20056;-61
2022/09/20 08:31:35;;;;;;;0.95;0.60;;;25.50;42.20;;;;;;4994157;28;20107;-61
2022/09/20 08:34:05;;;;;;;0.88;0.47;;;25.50;42.20;;;;;;4998212;28;20520;-62
2022/09/20 08:36:34;;;;;;;1.50;0.82;;;25.50;42.10;;;;;;4996446;28;20046;-62
2022/09/20 08:39:03;;;;;;;;;;;25.50;42.50;;;;;;5012046;28;20588;-63
2022/09/20 08:42:03;;;;;;;2.03;0.68;;;25.60;42.10;;;;;;4997135;28;19929;-63
2022/09/20 08:44:34;;;;;;;1.15;0.50;;;25.60;41.90;;;;;;4998279;28;20042;-65
2022/09/20 08:47:14;;;;;;;1.70;0.55;;;25.60;41.80;;;;;;4984941;28;20072;-62
2022/09/20 08:49:42;;;;;;;;;;;25.60;41.80;;;;;;4995586;28;20053;-62
2022/09/20 08:52:19;;;;;;;0.50;0.40;;;25.60;41.80;;;;;;4994508;28;19928;-63
2022/09/20 08:54:46;;;;;;;3.28;0.60;;;25.60;41.50;;;;;;5002364;28;20061;-62
2022/09/20 08:57:16;;;;;;;3.38;0.60;;;25.70;41.50;;;;;;4992340;28;20049;-62
2022/09/20 08:59:44;;;;;;;0.93;0.45;;;25.70;41.10;;;;;;4996259;28;20072;-61
2022/09/20 09:02:15;;;;;;;3.20;0.50;;;25.70;40.90;;;;;;5003265;28;20053;-61
2022/09/20 09:04:44;;;;;;;5.95;0.68;;;25.70;40.80;;;;;;5005664;28;21835;-63
2022/09/20 09:07:16;;;;;;;2.40;0.40;;;25.70;40.60;;;;;;5000972;28;20531;-63
2022/09/20 09:09:46;;;;;;;0.88;0.30;;;25.70;40.50;;;;;;4997197;28;20046;-62
2022/09/20 09:12:20;;;;;;;1.20;0.45;;;25.70;40.40;;;;;;5000415;28;20489;-61
2022/09/20 09:14:56;;;;;;;0.75;0.40;;;25.70;40.30;;;;;;4996440;28;20164;-62
2022/09/20 09:17:25;;;;;;;1.30;0.38;;;25.70;40.20;;;;;;5000982;28;20118;-61
2022/09/20 09:19:55;;;;;;;;;;;25.80;40.00;;;;;;4995461;28;20050;-61
2022/09/20 09:22:34;;;;;;;2.28;0.40;;;25.80;39.80;;;;;;4996190;28;19932;-61
2022/09/20 09:25:23;;;;;;;2.83;0.30;;;25.80;39.60;;;;;;4994761;28;20497;-61
2022/09/20 09:28:12;;;;;;;5.38;0.50;;;25.90;39.60;;;;;;4981012;28;20052;-62
2022/09/20 09:30:46;;;;;;;5.60;0.50;;;25.90;39.70;;;;;;4976581;28;20060;-61
2022/09/20 09:33:28;;;;;;;3.35;0.63;;;25.90;39.70;;;;;;4996433;28;20046;-62
2022/09/20 09:36:14;;;;;;;0.45;0.38;;;25.90;40.00;;;;;;4992037;28;20049;-63
2022/09/20 09:38:45;;;;;;;1.85;0.32;;;25.90;40.00;;;;;;4975484;28;20050;-62
2022/09/20 09:41:28;;;;;;;;;;;25.90;40.00;;;;;;5000258;28;20525;-62
2022/09/20 09:44:03;;;;;;;0.20;0.20;;;25.90;39.80;;;;;;4992796;28;20363;-60
2022/09/20 09:46:33;;;;;;;1.52;0.50;;;26.00;39.90;;;;;;5003587;28;20057;-60
2022/09/20 09:49:23;;;;;;;2.20;0.32;;;26.00;40.00;;;;;;5005283;28;20136;-60
2022/09/20 09:52:14;;;;;;;1.60;0.55;;;26.00;40.00;;;;;;4985358;28;20524;-61
2022/09/20 09:54:50;;;;;;;4.82;0.40;;;26.00;40.00;;;;;;5000823;28;20069;-61
2022/09/20 09:57:52;;;;;;;1.10;0.50;;;26.00;40.00;;;;;;5003993;28;20060;-60
2022/09/20 10:00:22;;;;;;;1.42;0.30;;;26.00;39.90;;;;;;5001482;28;20489;-60
2022/09/20 10:03:18;;;;;;;2.63;0.40;;;26.00;39.90;;;;;;5004731;28;20046;-59
2022/09/20 10:06:22;;;;;;;1.02;0.30;;;26.00;40.00;;;;;;4987769;28;20037;-61
2022/09/20 10:09:13;;;;;;;1.77;0.40;;;26.00;39.70;;;;;;4994670;28;20053;-61
2022/09/20 10:12:21;;;;;;;1.65;0.43;;;26.10;39.70;;;;;;4989761;28;20053;-61
2022/09/20 10:15:06;;;;;;;1.20;0.45;;;26.00;39.80;;;;;;4981410;28;20049;-60
2022/09/20 10:17:56;;;;;;;2.38;1.05;;;26.00;39.80;;;;;;4992932;28;20482;-61
2022/09/20 10:20:46;;;;;;;0.40;0.40;;;26.10;39.80;;;;;;4993817;28;20054;-61
2022/09/20 10:23:40;;;;;;;1.42;0.20;;;26.00;39.80;;;;;;5000922;28;20045;-60
2022/09/20 10:26:52;;;;;;;1.00;0.17;;;26.00;39.80;;;;;;4998016;28;20073;-60
2022/09/20 10:29:45;;;;;;;0.85;0.25;;;26.00;39.70;;;;;;4997630;28;20042;-63
2022/09/20 10:32:40;;;;;;;0.45;0.20;;;26.00;39.70;;;;;;4983430;28;20486;-60
2022/09/20 10:35:44;;;;;;;1.38;0.20;;;26.00;39.40;;;;;;4997190;28;20048;-59
2022/09/20 10:38:26;;;;;;;2.67;0.20;;;26.00;39.50;;;;;;5001445;28;20042;-60
2022/09/20 10:44:51;;;;;;;0.20;0.20;;;26.00;39.40;;;;;;4997216;28;20375;-60
2022/09/20 10:47:42;;;;;;;2.42;0.38;;;26.00;39.60;;;;;;4996728;28;20153;-59
2022/09/20 10:50:37;;;;;;;3.65;0.10;;;26.00;39.50;;;;;;4994265;28;20046;-59
2022/09/20 10:53:26;;;;;;;0.77;0.40;;;26.00;39.40;;;;;;4996001;28;20054;-60
2022/09/20 10:56:22;;;;;;;0.30;0.25;;;26.10;39.40;;;;;;4990028;28;20046;-59
2022/09/20 10:59:22;;;;;;;0.68;0.20;;;26.10;39.40;;;;;;4981653;28;20869;-61
2022/09/20 11:02:12;;;;;;;1.73;0.40;;;26.10;39.40;;;;;;4996682;28;20057;-61
2022/09/20 11:04:58;;;;;;;1.10;0.30;;;26.20;39.50;;;;;;4991333;28;20081;-61
2022/09/20 11:07:51;;;;;;;0.20;0.20;;;26.10;39.10;;;;;;5001315;28;20385;-61
2022/09/20 11:10:36;;;;;;;2.47;0.30;;;26.10;39.10;;;;;;4995731;28;20081;-61
2022/09/20 11:13:39;;;;;;;1.35;0.20;;;26.10;39.10;;;;;;4989117;28;20497;-60
2022/09/20 11:16:14;;;;;;;1.88;0.17;;;26.10;38.80;;;;;;4976613;28;20050;-60
2022/09/20 11:18:59;;;;;;;1.52;0.30;;;26.10;39.00;;;;;;4992027;28;20482;-60
2022/09/20 11:21:35;;;;;;;1.83;0.55;;;26.00;39.00;;;;;;4977180;28;20049;-60
2022/09/20 11:24:29;;;;;;;1.15;0.20;;;26.10;39.10;;;;;;4989489;28;20050;-60
2022/09/20 11:27:22;;;;;;;1.48;0.30;;;26.10;39.40;;;;;;4978918;28;20056;-59
2022/09/20 11:30:06;;;;;;;3.08;0.80;;;26.10;39.20;;;;;;4993265;28;20049;-60
2022/09/20 11:33:14;;;;;;;4.13;0.45;;;26.10;39.10;;;;;;4986362;28;20053;-59
2022/09/20 11:35:51;;;;;;;0.30;0.10;;;26.10;39.00;;;;;;5001809;28;20552;-60
2022/09/20 11:38:31;;;;;;;3.58;0.20;;;26.20;39.20;;;;;;4996059;28;20049;-59
2022/09/20 11:41:25;;;;;;;0.10;0.10;;;26.20;39.20;;;;;;5000088;28;20054;-59
2022/09/20 11:43:59;;;;;;;1.67;0.52;;;26.20;39.30;;;;;;4997941;28;20065;-59
2022/09/20 11:46:39;;;;;;;4.00;0.20;;;26.20;39.40;;;;;;4993425;28;20513;-60
2022/09/20 11:49:23;;;;;;;0.90;0.20;;;26.20;39.30;;;;;;4984034;28;20050;-59
2022/09/20 11:52:19;;;;;;;0.35;0.10;;;26.20;39.30;;;;;;4994320;28;20050;-59
2022/09/20 11:55:17;;;;;;;0.80;0.30;;;26.20;39.40;;;;;;4976261;28;20053;-59
2022/09/20 11:57:45;;;;;;;0.63;0.10;;;26.20;39.20;;;;;;4994964;28;20221;-61
2022/09/20 12:00:12;;;;;;;1.00;0.50;;;26.20;39.20;;;;;;4992611;28;20054;-60
2022/09/20 12:02:51;;;;;;;0.17;0.10;;;26.30;39.40;;;;;;4999576;28;20061;-60
2022/09/20 12:05:37;;;;;;;1.00;0.22;;;26.20;39.50;;;;;;4998629;28;20456;-60
2022/09/20 12:08:16;;;;;;;0.82;0.55;;;26.20;39.50;;;;;;5001211;28;20081;-58
2022/09/20 12:10:58;;;;;;;1.60;0.30;;;26.10;39.20;;;;;;4995959;28;20046;-61
2022/09/20 12:13:26;;;;;;;2.58;0.38;;;26.10;39.40;;;;;;4991398;28;21574;-60
2022/09/20 12:16:03;;;;;;;1.38;0.22;;;26.10;39.40;;;;;;4992809;28;20494;-60
2022/09/20 12:19:04;;;;;;;6.05;0.85;;;26.10;39.60;;;;;;5000279;28;20096;-60
2022/09/20 12:22:11;;;;;;;0.50;0.20;;;26.10;39.50;;;;;;4999865;28;20325;-61
2022/09/20 12:24:39;;;;;;;2.85;0.20;;;26.10;39.60;;;;;;4988912;28;20053;-60
2022/09/20 12:27:51;;;;;;;3.47;0.45;;;26.00;39.60;;;;;;4990855;28;20142;-60
2022/09/20 12:30:20;;;;;;;1.00;0.30;;;26.00;39.50;;;;;;4967964;28;21786;-60
2022/09/20 12:32:51;;;;;;;4.17;0.20;;;26.00;39.60;;;;;;4980259;28;20061;-60
2022/09/20 12:35:37;;;;;;;;;;;26.00;39.60;;;;;;5001947;28;20053;-60
2022/09/20 12:38:30;;;;;;;1.92;0.43;;;26.00;39.70;;;;;;4999176;28;19929;-59
2022/09/20 12:41:07;;;;;;;2.22;0.30;;;26.00;39.70;;;;;;4994773;28;20065;-60
2022/09/20 12:43:45;;;;;;;2.25;0.47;;;26.00;39.70;;;;;;4991882;28;20714;-60
2022/09/20 12:46:24;;;;;;;2.55;0.30;;;26.10;39.70;;;;;;4981887;28;20053;-60
2022/09/20 12:52:52;;;;;;;0.82;0.30;;;26.10;39.80;;;;;;4995679;28;20053;-60
2022/09/20 12:55:49;;;;;;;1.17;0.25;;;26.10;39.80;;;;;;4988488;28;20192;-60
2022/09/20 12:58:24;;;;;;;1.25;0.30;;;26.10;39.80;;;;;;4994790;28;20065;-60
2022/09/20 13:01:31;;;;;;;0.32;0.10;;;26.10;39.80;;;;;;5001476;28;20527;-59
2022/09/20 13:04:38;;;;;;;0.40;0.40;;;26.10;39.80;;;;;;4990547;28;20108;-60
2022/09/20 13:07:32;;;;;;;2.35;0.20;;;26.00;39.90;;;;;;5001173;28;20041;-60
2022/09/20 13:10:22;;;;;;;0.25;0.25;;;26.10;40.10;;;;;;4997801;28;20413;-61
2022/09/20 13:12:56;;;;;;;0.90;0.20;;;26.10;40.20;;;;;;5000287;28;20054;-61
2022/09/20 13:15:23;;;;;;;1.85;0.38;;;26.10;40.20;;;;;;4986111;28;20117;-60
2022/09/20 13:17:54;;;;;;;3.28;0.50;;;26.10;40.30;;;;;;4993566;28;20057;-59
2022/09/20 13:20:26;;;;;;;1.13;0.55;;;26.10;40.30;;;;;;5004274;28;20081;-60
2022/09/20 13:22:55;;;;;;;0.80;0.30;;;26.00;40.40;;;;;;4987069;28;20050;-60
2022/09/20 13:25:27;;;;;;;0.52;0.30;;;26.00;40.40;;;;;;4978961;28;20054;-59
2022/09/20 13:28:18;;;;;;;0.45;0.20;;;26.00;40.40;;;;;;4996282;28;20054;-60
2022/09/20 13:30:47;;;;;;;4.57;0.50;;;26.00;40.30;;;;;;4995867;28;20053;-60
2022/09/20 13:33:23;;;;;;;3.35;0.47;;;26.00;40.40;;;;;;4992037;28;20046;-60
2022/09/20 13:35:55;;;;;;;3.00;0.75;;;26.10;40.40;;;;;;5001310;28;20494;-60
2022/09/20 13:38:26;;;;;;;2.60;0.38;;;26.10;40.40;;;;;;4993458;28;20053;-59
2022/09/20 13:41:05;;;;;;;5.07;0.75;;;26.10;40.40;;;;;;4998558;28;20050;-60
2022/09/20 13:43:42;;;;;;;3.85;0.40;;;26.10;40.50;;;;;;4999281;28;20405;-59
2022/09/20 13:46:12;;;;;;;4.57;0.88;;;26.10;40.50;;;;;;5003166;28;20056;-60
2022/09/20 13:48:39;;;;;;;2.05;0.40;;;26.20;40.40;;;;;;5003608;28;20057;-58
2022/09/20 13:51:24;;;;;;;8.98;1.55;;;26.30;40.30;;;;;;4997579;28;20054;-59
2022/09/20 13:53:52;;;;;;;2.30;0.40;;;26.40;40.30;;;;;;4999110;28;20053;-59
2022/09/20 13:56:27;;;;;;;6.30;0.50;;;26.40;40.30;;;;;;5000130;28;20072;-60
2022/09/20 13:58:57;;;;;;;0.30;0.28;;;26.40;40.30;;;;;;5006620;28;20454;-59
2022/09/20 14:01:33;;;;;;;1.85;0.32;;;26.40;39.80;;;;;;5006438;28;20046;-59
2022/09/20 14:04:07;;;;;;;2.55;0.52;;;26.40;39.90;;;;;;5004436;28;20772;-58
2022/09/20 14:06:35;;;;;;;3.55;0.45;;;26.40;40.10;;;;;;5005058;28;20682;-59
2022/09/20 14:09:06;;;;;;;1.40;0.70;;;26.40;40.30;;;;;;5006569;28;20414;-58
2022/09/20 14:11:38;;;;;;;1.77;0.30;;;26.30;40.30;;;;;;5011362;28;20084;-58
2022/09/20 14:14:06;;;;;;;4.28;0.30;;;26.40;40.40;;;;;;5012922;28;20050;-58
2022/09/20 14:16:38;;;;;;;0.65;0.32;;;26.30;40.50;;;;;;5013341;28;20550;-59
2022/09/20 14:19:06;;;;;;;15.70;1.15;;;26.30;40.50;;;;;;5013694;28;20504;-59
2022/09/20 14:21:37;;;;;;;7.68;0.28;;;26.30;40.70;;;;;;5007418;28;20289;-60
2022/09/20 14:24:23;;;;;;;;;;;26.30;41.10;;;;;;5015362;28;20481;-61
2022/09/20 14:27:24;;;;;;;4.40;0.32;;;26.30;41.20;;;;;;4997369;28;19933;-60
2022/09/20 14:29:53;;;;;;;4.30;0.73;;;26.30;41.20;;;;;;4991832;28;20389;-61
2022/09/20 14:32:41;;;;;;;1.15;0.30;;;26.30;41.10;;;;;;4996738;28;20486;-61
2022/09/20 14:35:19;;;;;;;3.83;0.52;;;26.30;41.10;;;;;;4996398;28;20050;-64
2022/09/20 14:37:59;;;;;;;2.58;0.40;;;26.20;41.00;;;;;;5006114;28;20046;-61